In Rescue
 
Open Full Screen Window  High Contrast Mode
Wind Gusting 00 knots
07
May 28, 2020 6:46 PM EDT
Present Weather: Light Rain
Weather Information
Wind Direction
  280 °
Wind Speed
  07 kt (8 mph)
Wind Gust
  00 kt (0 mph)
Altimeter
29.76 in
Visibility
10 SM
Temperature
24° C
75° F
Dewpoint
18° C
64° F
Humidity
69%
1hr Rain Fall
00.00 in.
24hr Rain Fall
00.00 in.
Sky Condition
Overcast @ 2,500 ft
MVFR

METAR KIKW 282246Z AUTO 28007KT 10SM -RA OVC025 24/18 A2976 RMK AO2 T02380182

FAA Disclaimer: The data displayed is for advisory purposes only and is not to be used for flight planning or operations.